Time;durP1;ratioP1;P1;durP2;ratioP2;P2;SDS_P1;SDS_P2;PMS_P1;PMS_P2;Temp;Humidity;BMP_temperature;BMP_pressure;BME280_temperature;BME280_humidity;BME280_pressure;Samples;Min_cycle;Max_cycle;Signal;HPM_P1;HPM_P2
2022/01/14 00:02:16;;;;;;;2.70;1.23;;;;;;;1.40;82.37;98470.69;5114566;28;20035;-70
2022/01/14 00:04:43;;;;;;;1.60;1.50;;;;;;;1.43;82.43;98481.69;5114975;28;20685;-70
2022/01/14 00:07:09;;;;;;;3.73;1.83;;;;;;;1.42;82.06;98459.06;5114616;28;20268;-70
2022/01/14 00:09:36;;;;;;;1.80;1.50;;;;;;;1.48;82.41;98463.69;5114767;28;20388;-71
2022/01/14 00:12:10;;;;;;;1.87;1.53;;;;;;;1.32;82.65;98437.41;5114646;28;20084;-70
2022/01/14 00:17:03;;;;;;;2.10;1.40;;;;;;;1.48;82.49;98440.09;5114489;28;20673;-70
2022/01/14 00:19:28;;;;;;;2.50;1.17;;;;;;;1.40;82.58;98442.66;5096268;28;20031;-71
2022/01/14 00:21:54;;;;;;;1.47;1.23;;;;;;;1.52;82.69;98467.63;5096046;28;20428;-69
2022/01/14 00:32:13;;;;;;;3.67;1.60;;;;;;;1.60;82.10;98435.34;5132611;28;20637;-65
2022/01/14 00:34:39;;;;;;;2.23;1.30;;;;;;;1.57;82.10;98432.22;5117953;28;20266;-68
2022/01/14 00:37:04;;;;;;;1.53;1.00;;;;;;;1.43;82.37;98408.25;5114375;28;20265;-71
2022/01/14 00:39:32;;;;;;;2.87;1.23;;;;;;;1.46;82.50;98425.50;5115092;28;20133;-69
2022/01/14 00:41:59;;;;;;;3.97;1.50;;;;;;;1.49;82.59;98402.38;5120217;28;20048;-71
2022/01/14 00:44:24;;;;;;;1.83;1.40;;;;;;;1.46;82.60;98380.91;5120006;28;20811;-70
2022/01/14 00:46:50;;;;;;;3.43;1.30;;;;;;;1.50;82.64;98377.78;5116462;28;20272;-69
2022/01/14 00:49:18;;;;;;;2.60;1.30;;;;;;;1.34;82.56;98359.41;5113961;28;20031;-70
2022/01/14 00:51:44;;;;;;;1.57;1.40;;;;;;;1.39;83.07;98366.78;5113855;28;20033;-69
2022/01/14 00:54:11;;;;;;;1.53;1.30;;;;;;;1.35;83.26;98352.34;5114066;28;20261;-68
2022/01/14 00:59:14;;;;;;;3.55;1.35;;;;;;;1.34;82.84;98359.41;5115706;28;20322;-71
2022/01/14 01:02:01;;;;;;;1.40;1.20;;;;;;;1.35;83.34;98361.03;5121056;28;20087;-69
2022/01/14 01:04:32;;;;;;;1.90;1.30;;;;;;;1.35;82.91;98353.16;5102762;28;20637;-71
2022/01/14 01:06:59;;;;;;;3.50;1.57;;;;;;;1.38;82.64;98336.28;5114732;28;20265;-70
2022/01/14 01:09:26;;;;;;;1.30;1.20;;;;;;;1.38;82.70;98334.47;5113448;28;20325;-70
2022/01/14 01:12:06;;;;;;;4.27;2.73;;;;;;;1.37;82.57;98327.59;5095180;28;20313;-69
2022/01/14 01:14:44;;;;;;;1.70;1.47;;;;;;;1.43;82.83;98340.06;5113409;28;20253;-68
2022/01/14 01:17:10;;;;;;;1.20;1.03;;;;;;;1.36;82.93;98320.72;5113254;28;20266;-70
2022/01/14 01:19:36;;;;;;;1.93;1.50;;;;;;;1.41;82.89;98323.66;5113414;28;20353;-69
2022/01/14 01:22:02;;;;;;;2.07;1.40;;;;;;;1.32;83.39;98334.31;5094769;28;20348;-69
2022/01/14 01:24:28;;;;;;;2.70;1.50;;;;;;;1.24;83.37;98333.34;5113670;28;20047;-71
2022/01/14 01:26:55;;;;;;;2.70;1.50;;;;;;;1.12;83.72;98318.06;5113306;28;20169;-69
2022/01/14 01:31:53;;;;;;;9.30;3.10;;;;;;;1.24;83.86;98322.03;5113471;28;20269;-69
2022/01/14 01:34:23;;;;;;;1.37;1.20;;;;;;;1.35;83.43;98326.94;5113319;28;20272;-68
2022/01/14 01:36:55;;;;;;;1.47;1.30;;;;;;;1.40;83.67;98335.13;5113213;28;20035;-72
2022/01/14 01:39:27;;;;;;;1.30;1.20;;;;;;;1.43;83.64;98321.69;5113085;28;20309;-69
2022/01/14 01:41:55;;;;;;;2.27;1.30;;;;;;;1.44;83.71;98312.03;5094922;28;20279;-68
2022/01/14 01:44:23;;;;;;;1.25;1.15;;;;;;;1.39;84.30;98309.06;5112797;28;20302;-69
2022/01/14 01:46:50;;;;;;;1.13;1.00;;;;;;;1.39;83.82;98295.97;5112782;28;20536;-70
2022/01/14 01:49:19;;;;;;;1.87;1.20;;;;;;;1.36;83.54;98297.13;5112716;28;20357;-70
2022/01/14 01:51:46;;;;;;;3.35;1.40;;;;;;;1.33;83.66;98283.53;5112850;28;20262;-71
2022/01/14 01:54:12;;;;;;;3.27;1.60;;;;;;;1.24;83.83;98286.16;5094746;28;20390;-70
2022/01/14 01:56:38;;;;;;;2.10;1.57;;;;;;;1.17;83.61;98302.69;5094536;28;20269;-71
2022/01/14 01:59:05;;;;;;;2.20;1.20;;;;;;;1.11;83.87;98288.41;5113050;28;20275;-70
2022/01/14 02:01:31;;;;;;;1.57;1.20;;;;;;;1.09;84.07;98276.47;5112746;28;20036;-70
2022/01/14 02:03:57;;;;;;;1.37;1.27;;;;;;;1.11;84.09;98290.22;5113130;28;20356;-70
2022/01/14 02:06:24;;;;;;;1.50;1.40;;;;;;;0.98;83.86;98266.31;5095146;28;20283;-69
2022/01/14 02:08:50;;;;;;;3.10;1.10;;;;;;;0.91;84.33;98253.88;5112646;28;20031;-68
2022/01/14 02:11:16;;;;;;;1.40;1.30;;;;;;;0.92;84.38;98268.59;5112633;28;20290;-69
2022/01/14 02:13:43;;;;;;;1.60;1.50;;;;;;;0.82;84.51;98251.38;5112364;28;20269;-69
2022/01/14 02:24:08;;;;;;;3.23;1.53;;;;;;;0.58;85.50;98241.69;5116751;28;20664;-69
2022/01/14 02:26:48;;;;;;;2.93;1.30;;;;;;;0.56;85.54;98231.34;5116622;28;20258;-70
2022/01/14 02:29:15;;;;;;;2.13;1.40;;;;;;;0.49;85.33;98226.94;5116526;28;20389;-69
2022/01/14 02:31:40;;;;;;;1.77;1.43;;;;;;;0.46;85.35;98222.00;5116476;28;20767;-69
2022/01/14 02:34:06;;;;;;;1.50;1.40;;;;;;;0.41;85.31;98216.44;5116439;28;20107;-68
2022/01/14 02:36:32;;;;;;;1.40;1.30;;;;;;;0.47;85.33;98231.50;5116423;28;20031;-68
2022/01/14 02:38:59;;;;;;;1.73;1.50;;;;;;;0.48;84.98;98217.44;5116192;28;20384;-68
2022/01/14 02:41:25;;;;;;;1.87;1.40;;;;;;;0.44;85.15;98209.09;5098018;28;20369;-69
2022/01/14 02:43:50;;;;;;;1.90;1.40;;;;;;;0.42;84.89;98212.84;5116286;28;20360;-68
2022/01/14 02:46:16;;;;;;;2.60;2.10;;;;;;;0.32;84.47;98193.84;5116449;28;20515;-69
2022/01/14 02:48:41;;;;;;;1.60;1.20;;;;;;;0.46;83.96;98208.94;5116544;28;20053;-69
2022/01/14 02:51:11;;;;;;;3.67;1.60;;;;;;;0.56;84.01;98209.59;5084555;28;20061;-69
2022/01/14 02:56:09;;;;;;;3.95;1.77;;;;;;;0.52;84.01;98185.53;5120148;28;20314;-70
2022/01/14 02:58:37;;;;;;;2.40;1.40;;;;;;;0.60;83.58;98184.75;5116182;28;20039;-70
2022/01/14 03:01:14;;;;;;;1.50;1.40;;;;;;;0.57;84.13;98187.66;5116234;28;20277;-69
2022/01/14 03:03:43;;;;;;;3.23;1.37;;;;;;;0.56;84.23;98175.53;5116123;28;20795;-70
2022/01/14 03:06:09;;;;;;;;;;;;;;;0.52;83.89;98174.22;5116225;28;20270;-68
2022/01/14 03:08:35;;;;;;;1.80;1.67;;;;;;;0.48;83.50;98162.44;5115884;28;20348;-69
2022/01/14 03:11:12;;;;;;;1.57;1.27;;;;;;;0.45;84.22;98165.38;5116424;28;20027;-68
2022/01/14 03:13:39;;;;;;;2.30;2.10;;;;;;;0.41;83.81;98164.09;5132305;28;20237;-68
2022/01/14 03:16:05;;;;;;;3.83;1.53;;;;;;;0.40;83.75;98167.69;5130320;28;20284;-70
2022/01/14 03:18:46;;;;;;;3.87;2.07;;;;;;;0.37;83.85;98154.91;5121115;28;20266;-70
2022/01/14 03:21:14;;;;;;;4.13;1.60;;;;;;;0.34;83.56;98145.59;5116063;28;20771;-69
2022/01/14 03:23:46;;;;;;;4.37;1.50;;;;;;;0.15;84.05;98112.66;5116132;28;20602;-70
2022/01/14 03:26:14;;;;;;;2.90;1.83;;;;;;;0.28;83.80;98136.56;5115508;28;20756;-69
2022/01/14 03:28:40;;;;;;;2.37;1.83;;;;;;;0.33;83.51;98135.28;5097332;28;20735;-69
2022/01/14 03:31:05;;;;;;;2.33;1.53;;;;;;;0.36;83.35;98121.88;5115287;28;20301;-69
2022/01/14 03:33:31;;;;;;;3.77;1.37;;;;;;;0.44;83.15;98146.25;5115776;28;20035;-68
2022/01/14 03:35:56;;;;;;;2.97;1.57;;;;;;;0.41;82.99;98130.03;5115819;28;20037;-70
2022/01/14 03:38:25;;;;;;;2.40;1.63;;;;;;;0.21;83.21;98109.41;5096801;28;20048;-72
2022/01/14 03:40:52;;;;;;;1.98;1.30;;;;;;;0.43;83.40;98130.69;5115437;28;20048;-73
2022/01/14 03:43:18;;;;;;;1.70;1.50;;;;;;;0.44;82.62;98114.00;5115752;28;20097;-70
2022/01/14 03:45:44;;;;;;;1.50;1.10;;;;;;;0.48;82.31;98110.06;5115326;28;20266;-69
2022/01/14 03:48:09;;;;;;;1.93;1.30;;;;;;;0.26;81.86;98078.31;5115203;28;20036;-69
2022/01/14 03:50:36;;;;;;;1.77;1.20;;;;;;;0.47;81.95;98097.97;5115074;28;20054;-69
2022/01/14 03:53:02;;;;;;;1.83;1.53;;;;;;;0.43;82.10;98073.09;5115306;28;20032;-69
2022/01/14 03:55:28;;;;;;;2.13;1.43;;;;;;;0.55;81.66;98096.16;5114968;28;20330;-70
2022/01/14 03:57:53;;;;;;;1.37;1.10;;;;;;;0.57;82.16;98093.38;5115137;28;20269;-69
2022/01/14 04:00:19;;;;;;;2.37;2.17;;;;;;;0.54;82.46;98088.47;5096566;28;20044;-70
2022/01/14 04:02:46;;;;;;;2.63;2.40;;;;;;;0.41;82.37;98052.31;5096809;28;20035;-70
2022/01/14 04:05:12;;;;;;;4.03;2.40;;;;;;;0.55;82.92;98075.19;5114916;28;20308;-70
2022/01/14 04:07:38;;;;;;;2.97;1.50;;;;;;;0.52;82.95;98053.78;5116722;28;20281;-72
2022/01/14 04:10:05;;;;;;;4.53;1.80;;;;;;;0.36;82.55;98032.84;5118763;28;20742;-71
2022/01/14 04:15:37;;;;;;;2.90;1.80;;;;;;;0.24;83.08;98027.09;5055472;28;20268;-75
2022/01/14 04:18:13;;;;;;;2.05;1.40;;;;;;;0.14;83.09;98016.81;5057489;28;20330;-71
2022/01/14 04:20:44;;;;;;;4.80;1.70;;;;;;;0.13;83.00;98028.25;5094396;28;20035;-76
2022/01/14 04:23:22;;;;;;;2.17;1.97;;;;;;;-0.20;83.16;97987.38;5119980;28;20612;-78
2022/01/14 04:25:51;;;;;;;4.60;1.70;;;;;;;-0.02;83.09;98029.88;5117297;28;20284;-74
2022/01/14 04:28:18;;;;;;;3.17;1.83;;;;;;;-0.09;83.53;98026.28;5117832;28;20024;-70
2022/01/14 04:30:45;;;;;;;5.70;1.43;;;;;;;-0.13;83.93;98031.03;5095821;28;20036;-71
2022/01/14 04:33:11;;;;;;;4.37;2.40;;;;;;;-0.05;83.94;98056.38;5097583;28;20273;-77
2022/01/14 04:35:37;;;;;;;3.27;1.93;;;;;;;-0.03;83.63;98043.94;5114840;28;20709;-72
2022/01/14 04:38:03;;;;;;;3.07;1.90;;;;;;;0.03;83.44;98048.53;5114051;28;20055;-73
2022/01/14 04:40:30;;;;;;;7.00;1.90;;;;;;;0.09;83.11;98057.53;5114977;28;20409;-77
2022/01/14 04:42:57;;;;;;;3.17;2.77;;;;;;;0.05;83.74;98062.28;5104318;28;20316;-76
2022/01/14 04:45:39;;;;;;;4.90;2.50;;;;;;;-0.11;83.80;98039.53;5082896;28;20265;-76
2022/01/14 04:48:07;;;;;;;2.57;1.90;;;;;;;0.02;83.16;98056.56;5116804;28;20682;-76
2022/01/14 04:50:33;;;;;;;2.40;1.60;;;;;;;-0.05;82.58;98035.44;5113953;28;20771;-74
2022/01/14 04:52:59;;;;;;;1.73;1.50;;;;;;;0.03;82.13;98025.00;5113896;28;20040;-77
2022/01/14 04:55:33;;;;;;;2.97;1.57;;;;;;;0.20;81.79;98028.41;5114120;28;20031;-79
2022/01/14 04:57:58;;;;;;;1.80;1.70;;;;;;;0.19;81.87;98022.38;5113544;28;20291;-77
2022/01/14 05:00:26;;;;;;;1.40;1.30;;;;;;;0.19;81.29;98022.38;5114990;28;20402;-77
2022/01/14 05:02:54;;;;;;;2.33;1.73;;;;;;;0.22;81.33;98016.81;5121877;28;20042;-75
2022/01/14 05:05:22;;;;;;;3.07;1.27;;;;;;;0.22;81.42;98022.03;5117103;28;20036;-74
2022/01/14 05:07:49;;;;;;;1.42;1.30;;;;;;;0.19;81.07;98026.78;5114458;28;20258;-76
2022/01/14 05:10:21;;;;;;;2.37;1.73;;;;;;;0.19;80.84;98005.84;5096270;28;20046;-77
2022/01/14 05:12:47;;;;;;;1.60;1.50;;;;;;;0.11;80.75;97977.06;5114338;28;20261;-76
2022/01/14 05:15:15;;;;;;;2.50;1.70;;;;;;;0.40;80.27;98031.53;5096358;28;20767;-75
2022/01/14 05:17:41;;;;;;;2.90;1.30;;;;;;;0.24;80.12;97996.50;5113932;28;20039;-76
2022/01/14 05:20:07;;;;;;;2.33;1.77;;;;;;;0.21;79.56;97999.47;5114990;28;20752;-77
2022/01/14 05:22:32;;;;;;;2.17;1.50;;;;;;;0.23;79.68;98007.16;5114228;28;20046;-76
2022/01/14 05:24:58;;;;;;;1.53;1.43;;;;;;;0.08;78.92;98004.38;5113577;28;20270;-73
2022/01/14 05:27:23;;;;;;;2.77;1.43;;;;;;;0.26;78.20;98012.88;5114147;28;20032;-76
2022/01/14 05:29:49;;;;;;;2.13;1.47;;;;;;;0.35;77.80;98028.59;5095962;28;20428;-76
2022/01/14 05:32:15;;;;;;;1.70;1.33;;;;;;;0.33;77.74;98009.63;5121886;28;20499;-74
2022/01/14 05:34:43;;;;;;;2.33;1.43;;;;;;;0.37;77.64;98008.31;5121322;28;20031;-78
2022/01/14 05:37:09;;;;;;;1.53;1.40;;;;;;;0.39;77.44;98016.81;5112663;28;20276;-76
2022/01/14 05:39:39;;;;;;;3.80;1.60;;;;;;;0.03;77.27;97954.34;5113205;28;20277;-76
2022/01/14 05:42:20;;;;;;;;;;;;;;;0.53;77.81;98026.59;5112526;28;20277;-77
2022/01/14 05:44:46;;;;;;;3.73;1.40;;;;;;;0.23;77.53;97975.75;5115319;28;20010;-74
2022/01/14 05:47:11;;;;;;;2.13;1.40;;;;;;;0.53;77.61;98030.03;5076915;28;20352;-75
2022/01/14 05:49:41;;;;;;;1.67;1.20;;;;;;;0.49;77.39;98014.81;5118054;28;20091;-77
2022/01/14 05:52:13;;;;;;;3.87;1.73;;;;;;;0.51;77.57;98018.91;5120200;28;20035;-75
2022/01/14 05:54:39;;;;;;;6.10;1.80;;;;;;;0.49;77.34;98006.97;5116760;28;20292;-77
2022/01/14 05:57:04;;;;;;;2.50;1.90;;;;;;;0.55;77.62;98024.63;5094901;28;20042;-76
2022/01/14 05:59:30;;;;;;;4.13;1.80;;;;;;;0.56;77.91;98015.78;5113107;28;20189;-75
2022/01/14 06:01:55;;;;;;;4.93;1.97;;;;;;;0.58;77.96;98012.06;5113641;28;20394;-74
2022/01/14 06:04:21;;;;;;;7.73;1.73;;;;;;;0.51;78.18;97995.34;5113931;28;20490;-76
2022/01/14 06:06:46;;;;;;;3.30;1.50;;;;;;;0.49;77.81;97989.47;5113561;28;20035;-76
2022/01/14 06:09:12;;;;;;;3.33;1.80;;;;;;;0.54;77.02;97997.63;5112350;28;20027;-74
2022/01/14 06:11:37;;;;;;;2.77;1.63;;;;;;;0.51;77.36;97999.75;5111789;28;20031;-75
2022/01/14 06:14:03;;;;;;;2.53;1.40;;;;;;;0.23;77.59;97955.63;5111414;28;20039;-77
2022/01/14 06:16:28;;;;;;;2.13;1.70;;;;;;;0.57;77.45;98001.72;5112100;28;20054;-74
2022/01/14 06:18:54;;;;;;;4.17;1.30;;;;;;;0.56;77.04;98002.69;5112440;28;20043;-76
2022/01/14 06:21:19;;;;;;;3.80;1.17;;;;;;;0.58;76.70;98000.75;5112740;28;20062;-74
2022/01/14 06:23:45;;;;;;;2.30;1.27;;;;;;;0.42;76.21;97979.81;5094637;28;20035;-73
2022/01/14 06:26:10;;;;;;;2.90;1.57;;;;;;;0.52;76.89;98001.41;5094650;28;20044;-74
2022/01/14 06:28:36;;;;;;;4.03;1.40;;;;;;;0.58;76.23;98006.00;5094465;28;20031;-75
2022/01/14 06:31:02;;;;;;;2.30;1.30;;;;;;;0.40;76.08;97980.00;5112393;28;20035;-75
2022/01/14 06:33:27;;;;;;;2.17;1.60;;;;;;;0.52;75.60;97991.75;5110627;28;20035;-74
2022/01/14 06:35:53;;;;;;;3.13;1.37;;;;;;;0.56;74.92;98003.50;5112187;28;20031;-74
2022/01/14 06:38:21;;;;;;;2.10;1.60;;;;;;;0.59;75.36;97999.78;5111668;28;20383;-70
2022/01/14 06:40:48;;;;;;;2.08;1.45;;;;;;;0.58;74.62;98011.22;5112156;28;20043;-76
2022/01/14 06:43:15;;;;;;;2.73;1.50;;;;;;;0.57;74.51;98006.94;5111880;28;20070;-69
2022/01/14 06:45:42;;;;;;;3.70;1.70;;;;;;;0.50;75.22;98003.38;5112085;28;20273;-69
2022/01/14 06:48:08;;;;;;;4.80;1.83;;;;;;;0.49;74.20;97986.03;5112084;28;20269;-77
2022/01/14 06:50:33;;;;;;;2.23;1.57;;;;;;;0.50;73.25;97990.28;5093795;28;20780;-72
2022/01/14 06:52:59;;;;;;;2.23;1.50;;;;;;;0.52;73.47;98001.41;5112403;28;20114;-72
2022/01/14 06:55:25;;;;;;;3.50;1.97;;;;;;;0.56;72.78;98008.75;5112129;28;20027;-74
2022/01/14 06:57:50;;;;;;;5.17;2.33;;;;;;;0.46;72.77;98002.06;5113166;28;20044;-73
2022/01/14 07:00:20;;;;;;;2.33;1.93;;;;;;;0.58;72.90;98017.28;5094279;28;20110;-71
2022/01/14 07:02:55;;;;;;;3.50;2.30;;;;;;;0.48;73.17;97995.69;5115791;28;20095;-79
2022/01/14 07:05:21;;;;;;;4.17;2.43;;;;;;;0.64;72.22;98014.97;5101218;28;20280;-76
2022/01/14 07:07:46;;;;;;;1.97;1.67;;;;;;;0.62;71.15;98030.88;5102075;28;20277;-73
2022/01/14 07:10:12;;;;;;;4.47;2.20;;;;;;;0.55;70.08;98022.00;5125339;28;20070;-71
2022/01/14 07:12:42;;;;;;;3.80;1.87;;;;;;;0.34;70.29;97985.91;5119012;28;20058;-69
2022/01/14 07:15:13;;;;;;;4.37;1.70;;;;;;;0.65;69.67;98027.09;5121797;28;20032;-74
2022/01/14 07:17:39;;;;;;;2.17;1.40;;;;;;;0.44;70.26;97985.72;5120791;28;20280;-72
2022/01/14 07:20:12;;;;;;;3.20;1.80;;;;;;;0.67;69.88;98031.19;5119519;28;20744;-73
2022/01/14 07:22:46;;;;;;;4.13;1.53;;;;;;;0.10;69.60;97947.47;5120081;28;20270;-77
2022/01/14 07:25:13;;;;;;;2.93;1.70;;;;;;;0.67;69.95;98039.03;5099084;28;20281;-73
2022/01/14 07:27:38;;;;;;;5.80;1.90;;;;;;;0.66;69.94;98041.81;5096374;28;20749;-71
2022/01/14 07:30:08;;;;;;;2.63;1.57;;;;;;;0.64;69.10;98042.00;5095188;28;20290;-70
2022/01/14 07:32:34;;;;;;;4.77;2.00;;;;;;;0.57;68.97;98015.63;5095082;28;20513;-72
2022/01/14 07:34:59;;;;;;;5.47;2.00;;;;;;;0.67;69.91;98043.47;5099402;28;20262;-68
2022/01/14 07:37:29;;;;;;;3.53;1.97;;;;;;;0.63;68.45;98034.31;5098796;28;20173;-70
2022/01/14 07:39:58;;;;;;;4.47;1.70;;;;;;;0.58;68.75;98032.19;5099164;28;20312;-74
2022/01/14 07:42:24;;;;;;;8.00;2.90;;;;;;;0.64;69.07;98036.75;5100439;28;20197;-73
2022/01/14 07:44:59;;;;;;;7.53;2.43;;;;;;;0.63;69.11;98042.97;5101638;28;20300;-72
2022/01/14 07:47:25;;;;;;;2.10;1.20;;;;;;;0.62;68.60;98057.06;5101069;28;20137;-77
2022/01/14 07:49:54;;;;;;;1.80;1.43;;;;;;;0.61;68.58;98050.19;5100337;28;20298;-75
2022/01/14 07:52:20;;;;;;;1.80;1.70;;;;;;;0.68;68.63;98050.31;5100831;28;20273;-75
2022/01/14 07:54:46;;;;;;;3.73;1.77;;;;;;;0.71;68.33;98034.28;5099963;28;20048;-75
2022/01/14 07:57:13;;;;;;;4.47;1.40;;;;;;;0.68;67.15;98027.56;5099781;28;20054;-73
2022/01/14 07:59:55;;;;;;;4.47;1.70;;;;;;;0.75;67.54;98040.81;5098756;28;20058;-70
2022/01/14 08:02:21;;;;;;;5.80;1.60;;;;;;;0.47;66.83;97998.47;5096964;28;20270;-75
2022/01/14 08:04:48;;;;;;;8.03;2.80;;;;;;;0.59;66.31;98036.44;5094360;28;20923;-76
2022/01/14 08:07:45;;;;;;;4.67;1.70;;;;;;;0.73;66.07;98053.25;5098372;28;20047;-73
2022/01/14 08:10:12;;;;;;;8.33;2.50;;;;;;;0.68;65.49;98053.78;5097432;28;20773;-71
2022/01/14 08:12:40;;;;;;;3.00;1.80;;;;;;;0.68;65.68;98058.19;5094013;28;20274;-69
2022/01/14 08:15:08;;;;;;;8.10;2.17;;;;;;;0.69;65.50;98068.50;5094477;28;20274;-72
2022/01/14 08:17:33;;;;;;;8.63;1.80;;;;;;;0.71;65.92;98068.34;5093408;28;20262;-68
2022/01/14 08:19:59;;;;;;;5.17;2.00;;;;;;;0.68;65.88;98059.00;5094490;28;20537;-75
2022/01/14 08:22:24;;;;;;;5.43;2.43;;;;;;;0.61;65.92;98045.75;5077063;28;20122;-74
2022/01/14 08:24:50;;;;;;;6.83;2.10;;;;;;;0.71;65.91;98071.78;5077092;28;20132;-69
2022/01/14 08:27:15;;;;;;;4.40;2.07;;;;;;;0.65;66.25;98059.34;5093811;28;20131;-70
2022/01/14 08:29:41;;;;;;;3.10;1.37;;;;;;;0.71;66.45;98058.66;5093812;28;20043;-69
2022/01/14 08:32:08;;;;;;;3.93;1.90;;;;;;;0.68;66.34;98064.25;5094030;28;20039;-69
2022/01/14 08:34:34;;;;;;;3.50;2.10;;;;;;;0.70;66.84;98071.94;5094165;28;20036;-68
2022/01/14 08:37:00;;;;;;;2.80;1.20;;;;;;;0.57;66.30;98054.09;5093852;28;20270;-69
2022/01/14 08:39:33;;;;;;;5.27;1.80;;;;;;;0.69;66.00;98071.13;5093210;28;20400;-71
2022/01/14 08:41:59;;;;;;;6.25;2.88;;;;;;;0.65;65.51;98061.97;5093579;28;20327;-70
2022/01/14 08:44:25;;;;;;;10.20;2.63;;;;;;;0.67;65.72;98064.41;5094262;28;20472;-71
2022/01/14 08:46:53;;;;;;;3.50;2.77;;;;;;;0.64;66.43;98051.66;5077444;28;20040;-70
2022/01/14 08:49:20;;;;;;;6.72;2.20;;;;;;;0.67;66.02;98067.03;5096066;28;20274;-68
2022/01/14 08:51:47;;;;;;;6.10;1.93;;;;;;;0.73;66.15;98069.78;5096872;28;20051;-69
2022/01/14 08:54:12;;;;;;;4.47;1.70;;;;;;;0.72;66.43;98068.16;5078960;28;20042;-71
2022/01/14 08:56:38;;;;;;;7.77;2.47;;;;;;;0.72;66.74;98070.78;5080123;28;20259;-72
2022/01/14 08:59:05;;;;;;;5.70;1.77;;;;;;;0.54;66.50;98038.72;5073982;28;20028;-74
2022/01/14 09:01:31;;;;;;;6.27;2.97;;;;;;;0.65;66.53;98064.56;5074496;28;20071;-72
2022/01/14 09:03:57;;;;;;;6.53;2.83;;;;;;;0.72;66.19;98081.25;5074331;28;20852;-75
2022/01/14 09:06:23;;;;;;;4.70;1.90;;;;;;;0.76;66.69;98077.31;5073845;28;20369;-71
2022/01/14 09:08:50;;;;;;;5.53;2.10;;;;;;;0.68;66.65;98077.34;5074319;28;20029;-69
2022/01/14 09:11:16;;;;;;;4.70;2.00;;;;;;;0.78;66.25;98075.34;5072695;28;20286;-68
2022/01/14 09:13:42;;;;;;;3.07;1.70;;;;;;;0.70;66.36;98058.84;5072948;28;20320;-78
2022/01/14 09:16:07;;;;;;;6.50;2.10;;;;;;;0.63;65.51;98052.63;5074599;28;20027;-73
2022/01/14 09:18:33;;;;;;;2.90;1.70;;;;;;;0.82;66.20;98086.31;5093117;28;20737;-69
2022/01/14 09:20:59;;;;;;;3.30;1.87;;;;;;;0.76;66.14;98084.38;5092851;28;20119;-69
2022/01/14 09:23:25;;;;;;;6.53;1.77;;;;;;;0.71;65.58;98084.88;5074599;28;20036;-73
2022/01/14 09:25:52;;;;;;;4.57;2.60;;;;;;;0.77;65.58;98094.69;5092839;28;20089;-66
2022/01/14 09:28:18;;;;;;;5.10;1.60;;;;;;;0.84;65.04;98098.25;5074560;28;20838;-70
2022/01/14 09:30:43;;;;;;;3.93;2.00;;;;;;;0.82;65.44;98092.38;5092692;28;20290;-67
2022/01/14 09:33:09;;;;;;;2.80;2.13;;;;;;;0.85;65.82;98094.66;5093631;28;20258;-76
2022/01/14 09:35:35;;;;;;;3.03;2.57;;;;;;;0.88;65.56;98096.97;5093237;28;20506;-68
2022/01/14 09:38:01;;;;;;;6.30;2.50;;;;;;;0.85;65.26;98092.03;5058156;28;20044;-67
2022/01/14 09:40:29;;;;;;;4.43;2.77;;;;;;;0.85;64.29;98094.66;5074063;28;20040;-68
2022/01/14 09:43:01;;;;;;;2.45;1.48;;;;;;;0.86;64.39;98098.09;5092118;28;20286;-67
2022/01/14 09:45:30;;;;;;;3.07;1.80;;;;;;;0.79;63.75;98086.66;5092887;28;20058;-69
2022/01/14 09:47:58;;;;;;;4.20;1.80;;;;;;;0.79;62.76;98092.72;5092535;28;20345;-68
2022/01/14 09:50:25;;;;;;;3.53;1.97;;;;;;;0.75;64.02;98095.81;5092377;28;20297;-68
2022/01/14 09:52:51;;;;;;;4.80;1.93;;;;;;;0.79;63.06;98097.94;5092364;28;20341;-69
2022/01/14 09:55:20;;;;;;;4.07;1.73;;;;;;;0.85;64.10;98120.84;5091851;28;20349;-68
2022/01/14 09:57:46;;;;;;;3.35;1.98;;;;;;;0.81;62.94;98106.47;5092112;28;20291;-69
2022/01/14 10:00:12;;;;;;;3.53;1.90;;;;;;;0.77;62.15;98109.56;5092350;28;20031;-68
2022/01/14 10:02:43;;;;;;;4.57;1.70;;;;;;;0.76;60.78;98106.13;5074116;28;20262;-69
2022/01/14 10:05:30;;;;;;;6.10;2.13;;;;;;;0.75;61.00;98106.31;5092995;28;20292;-75
2022/01/14 10:08:18;;;;;;;11.30;2.50;;;;;;;0.57;61.43;98078.47;5092915;28;20273;-73
2022/01/14 10:10:51;;;;;;;4.03;1.83;;;;;;;0.79;62.08;98118.91;5092871;28;20333;-75
2022/01/14 10:13:31;;;;;;;3.93;1.87;;;;;;;0.74;61.95;98121.22;5092297;28;20097;-74
2022/01/14 10:16:03;;;;;;;12.80;2.43;;;;;;;0.70;62.19;98104.19;5092216;28;20764;-67
2022/01/14 10:18:35;;;;;;;3.20;1.70;;;;;;;0.76;62.40;98124.47;5092141;28;20624;-70
2022/01/14 10:21:04;;;;;;;3.97;2.23;;;;;;;0.78;62.16;98127.75;5092197;28;20286;-68
2022/01/14 10:23:39;;;;;;;3.97;2.10;;;;;;;0.72;62.42;98104.84;5092078;28;20357;-72
2022/01/14 10:26:05;;;;;;;2.90;1.63;;;;;;;0.78;61.68;98125.13;5091852;28;20040;-77
2022/01/14 10:28:30;;;;;;;2.93;2.03;;;;;;;0.65;61.08;98096.00;5092596;28;20277;-76
2022/01/14 10:30:56;;;;;;;3.83;1.93;;;;;;;0.64;61.81;98114.50;5093331;28;20102;-79
2022/01/14 10:33:27;;;;;;;7.93;2.33;;;;;;;0.73;62.14;98129.22;5093594;28;20491;-73
2022/01/14 10:35:53;;;;;;;2.73;1.77;;;;;;;0.66;62.55;98136.94;5092026;28;20100;-74
2022/01/14 10:38:22;;;;;;;3.03;1.50;;;;;;;0.61;62.32;98132.19;5092443;28;20282;-72
2022/01/14 10:40:57;;;;;;;5.00;1.80;;;;;;;0.61;62.38;98126.13;5094228;28;20047;-71
2022/01/14 10:43:32;;;;;;;3.47;1.80;;;;;;;0.66;61.53;98152.66;5096306;28;20795;-73
2022/01/14 10:45:59;;;;;;;2.50;1.60;;;;;;;0.65;61.97;98145.78;5097506;28;20784;-73
2022/01/14 10:48:32;;;;;;;1.60;1.50;;;;;;;0.60;61.30;98177.69;5078071;28;20365;-73
2022/01/14 10:50:59;;;;;;;6.77;1.80;;;;;;;0.58;61.84;98163.13;5095531;28;20302;-72
2022/01/14 10:53:36;;;;;;;4.87;1.77;;;;;;;0.49;62.33;98149.19;5078141;28;20339;-73
2022/01/14 10:56:17;;;;;;;4.27;1.70;;;;;;;0.48;61.66;98144.13;5078487;28;20784;-76
2022/01/14 10:58:46;;;;;;;4.10;2.23;;;;;;;0.54;62.38;98152.13;5078065;28;20278;-77
2022/01/14 11:01:20;;;;;;;3.13;2.30;;;;;;;0.44;61.79;98130.53;5096587;28;20262;-76
2022/01/14 11:04:10;;;;;;;8.30;2.13;;;;;;;0.63;62.65;98150.38;5095344;28;20032;-69
2022/01/14 11:06:40;;;;;;;6.17;3.23;;;;;;;0.63;61.76;98147.75;5095367;28;20266;-71
2022/01/14 11:09:08;;;;;;;12.57;3.97;;;;;;;0.67;62.40;98143.81;5095530;28;20959;-71
2022/01/14 11:11:36;;;;;;;6.60;2.92;;;;;;;0.70;61.93;98151.34;5095502;28;20286;-67
2022/01/14 11:14:04;;;;;;;5.50;3.35;;;;;;;0.75;61.61;98170.00;5094958;28;20043;-69
2022/01/14 11:16:30;;;;;;;5.47;3.37;;;;;;;0.73;61.62;98160.66;5095684;28;20612;-72
2022/01/14 11:18:59;;;;;;;2.93;1.63;;;;;;;0.64;61.80;98151.19;5095463;28;20266;-67
2022/01/14 11:24:32;;;;;;;2.83;1.97;;;;;;;0.59;61.95;98160.34;5095761;28;20525;-80
2022/01/14 11:27:15;;;;;;;4.53;1.77;;;;;;;0.64;61.75;98182.59;5095963;28;20266;-70
2022/01/14 11:29:51;;;;;;;3.50;2.00;;;;;;;0.68;61.45;98195.22;5095101;28;20277;-71
2022/01/14 11:32:17;;;;;;;11.20;5.77;;;;;;;0.61;61.76;98175.91;5094975;28;20315;-74
2022/01/14 11:34:48;;;;;;;7.63;3.87;;;;;;;0.70;62.36;98200.28;5094589;28;20270;-71
2022/01/14 11:37:36;;;;;;;6.70;2.50;;;;;;;0.56;62.51;98186.84;5076852;28;20429;-70
2022/01/14 11:40:12;;;;;;;2.33;1.60;;;;;;;0.65;62.69;98190.31;5076439;28;20294;-70
2022/01/14 11:43:03;;;;;;;4.67;2.77;;;;;;;0.41;62.51;98157.03;5080363;28;20598;-72
2022/01/14 11:45:44;;;;;;;8.03;2.57;;;;;;;0.70;62.22;98202.91;5076224;28;20692;-70
2022/01/14 11:48:48;;;;;;;2.23;1.63;;;;;;;0.69;62.40;98207.31;5094978;28;20270;-69
2022/01/14 11:51:17;;;;;;;4.80;1.63;;;;;;;0.60;61.72;98209.13;5071994;28;20796;-71
2022/01/14 11:53:45;;;;;;;3.92;1.98;;;;;;;0.56;61.73;98222.69;5094137;28;20277;-69
2022/01/14 11:56:30;;;;;;;4.15;1.55;;;;;;;0.57;62.29;98230.38;5094661;28;20086;-70
2022/01/14 11:59:21;;;;;;;5.83;2.60;;;;;;;0.60;62.79;98239.75;5094222;28;20043;-69
2022/01/14 12:01:51;;;;;;;5.73;1.57;;;;;;;0.52;62.25;98234.47;5094111;28;20266;-69
2022/01/14 12:04:17;;;;;;;5.20;1.80;;;;;;;0.56;62.07;98238.41;5094080;28;20361;-70
2022/01/14 12:06:51;;;;;;;6.73;1.80;;;;;;;0.55;62.22;98236.75;5093300;28;20270;-69
2022/01/14 12:09:22;;;;;;;3.83;1.70;;;;;;;0.52;62.77;98224.81;5094394;28;20270;-70
2022/01/14 12:12:31;;;;;;;2.13;1.30;;;;;;;0.55;62.31;98231.53;5094397;28;20763;-76
2022/01/14 12:15:00;;;;;;;2.07;1.70;;;;;;;0.34;62.15;98199.75;5076399;28;20270;-76
2022/01/14 12:17:40;;;;;;;4.63;1.80;;;;;;;0.46;62.66;98229.88;5076330;28;20281;-72
2022/01/14 12:20:12;;;;;;;4.03;1.97;;;;;;;0.46;62.35;98232.50;5093899;28;20262;-76
2022/01/14 12:22:38;;;;;;;4.80;1.90;;;;;;;0.47;62.06;98226.28;5060101;28;20270;-74